Laguna Niguel, California
Current Conditions -  °F | °C
As of 3:53 PM on Wednesday 28 Jan 2015 (Local Time) from KSNA Reporting Station
Overcast Overcast  
Wind Chill: 22°   Ceiling: 30000
Heat Index: 22°   Visibility: 10mi
Dew Point:   Wind: 0mph
Humidity: 44%   Direction: NA
Pressure: 30.06"   Gusts: NA
Location:  33.56°N, 117.7°W
Report Text: KSNA 282353Z 00000KT 10SM FEW080 SCT200 OVC300 22/09 A3006 RMK AO2 SLP177 T02220094 10239 20194 58001
Loading
Personal Weather Stations






























Interactive Weather Map New forecast layout! Learn more

10-Day Weather Forecast

Advertisements
Track Severe Weather on mobile